createdAt,value
2023-02-23T00:02:59.045Z,40.20
2023-02-23T00:07:56.173Z,39.30
2023-02-23T00:10:30.862Z,39.83
2023-02-23T00:13:00.679Z,40.92
2023-02-23T00:15:29.836Z,40.92
2023-02-23T00:17:59.440Z,37.33
2023-02-23T00:22:56.417Z,40.17
2023-02-23T00:25:25.964Z,36.97
2023-02-23T00:27:54.791Z,38.55
2023-02-23T00:30:23.870Z,34.13
2023-02-23T00:32:52.962Z,33.58
2023-02-23T00:35:20.621Z,34.40
2023-02-23T00:37:49.493Z,35.45
2023-02-23T00:40:21.185Z,33.20
2023-02-23T00:42:50.015Z,32.40
2023-02-23T00:45:17.767Z,32.30
2023-02-23T00:47:49.132Z,30.38
2023-02-23T00:50:18.489Z,31.08
2023-02-23T00:52:46.191Z,31.10
2023-02-23T00:55:15.759Z,30.67
2023-02-23T00:57:43.475Z,29.70
2023-02-23T01:00:20.637Z,28.17
2023-02-23T01:02:50.289Z,31.35
2023-02-23T01:07:47.450Z,32.00
2023-02-23T01:10:21.269Z,30.17
2023-02-23T01:12:50.822Z,31.92
2023-02-23T01:15:19.883Z,30.48
2023-02-23T01:17:49.158Z,31.65
2023-02-23T01:20:19.827Z,29.95
2023-02-23T01:22:50.187Z,31.33
2023-02-23T01:25:19.164Z,31.40
2023-02-23T01:27:47.565Z,30.92
2023-02-23T01:30:16.678Z,30.50
2023-02-23T01:32:44.487Z,31.05
2023-02-23T01:35:14.814Z,31.40
2023-02-23T01:37:44.151Z,34.15
2023-02-23T01:40:16.062Z,31.10
2023-02-23T01:42:46.049Z,31.95
2023-02-23T01:45:26.129Z,30.52
2023-02-23T01:47:57.410Z,30.60
2023-02-23T01:50:29.024Z,29.75
2023-02-23T01:52:56.887Z,27.92
2023-02-23T01:55:29.576Z,28.83
2023-02-23T01:58:05.123Z,29.40
2023-02-23T02:00:36.858Z,34.78
2023-02-23T02:03:12.053Z,31.23
2023-02-23T02:05:41.915Z,30.25
2023-02-23T02:08:11.530Z,25.60
2023-02-23T02:13:20.492Z,31.63
2023-02-23T02:16:31.769Z,34.47
2023-02-23T02:19:31.073Z,31.95
2023-02-23T02:22:26.332Z,38.95
2023-02-23T02:25:25.838Z,38.10
2023-02-23T02:28:35.566Z,39.95
2023-02-23T02:31:44.158Z,43.05
2023-02-23T02:34:42.987Z,41.83
2023-02-23T02:37:33.174Z,45.37
2023-02-23T02:40:17.121Z,48.10
2023-02-23T02:42:57.014Z,48.78
2023-02-23T02:45:32.263Z,49.38
2023-02-23T02:48:07.215Z,48.50
2023-02-23T02:50:43.421Z,52.97
2023-02-23T02:53:18.325Z,50.95
2023-02-23T02:55:49.121Z,54.22
2023-02-23T02:58:18.887Z,52.53
2023-02-23T03:01:07.837Z,55.72
2023-02-23T03:03:56.154Z,55.47
2023-02-23T03:06:46.283Z,55.55
2023-02-23T03:09:44.603Z,55.25
2023-02-23T03:12:41.008Z,57.55
2023-02-23T03:15:41.579Z,56.25
2023-02-23T03:18:38.615Z,56.90
2023-02-23T03:21:29.867Z,55.15
2023-02-23T03:24:26.866Z,57.83
2023-02-23T03:27:18.701Z,57.78
2023-02-23T03:30:13.475Z,56.10
2023-02-23T03:33:06.851Z,61.60
2023-02-23T03:35:59.059Z,59.58
2023-02-23T03:38:51.367Z,58.38
2023-02-23T03:41:39.799Z,54.47
2023-02-23T03:44:31.133Z,65.93
2023-02-23T03:47:20.057Z,61.35
2023-02-23T03:50:07.924Z,63.72
2023-02-23T03:53:01.295Z,64.95
2023-02-23T03:55:51.166Z,60.33
2023-02-23T03:58:43.580Z,60.25
2023-02-23T04:01:32.590Z,61.30
2023-02-23T04:04:19.968Z,61.70
2023-02-23T04:07:06.407Z,65.35
2023-02-23T04:09:52.172Z,68.85
2023-02-23T04:12:44.424Z,66.47
2023-02-23T04:15:16.117Z,67.57
2023-02-23T04:17:45.698Z,71.63
2023-02-23T04:20:15.337Z,76.75
2023-02-23T04:22:43.415Z,73.35
2023-02-23T04:25:12.323Z,80.10
2023-02-23T04:27:40.004Z,76.57
2023-02-23T04:30:11.983Z,78.95
2023-02-23T04:32:39.811Z,74.82
2023-02-23T04:35:10.907Z,72.97
2023-02-23T04:37:39.241Z,70.40
2023-02-23T04:40:08.163Z,73.03
2023-02-23T04:42:36.576Z,82.25
2023-02-23T04:45:04.883Z,73.43
2023-02-23T04:47:32.560Z,71.00
2023-02-23T04:50:00.765Z,73.38
2023-02-23T04:52:30.248Z,73.00
2023-02-23T04:54:57.922Z,77.80
2023-02-23T04:57:25.594Z,69.35
2023-02-23T04:59:53.866Z,78.88
2023-02-23T05:02:21.558Z,72.68
2023-02-23T05:04:49.333Z,68.00
2023-02-23T05:07:17.553Z,62.28
2023-02-23T05:09:46.581Z,70.00
2023-02-23T05:12:14.282Z,65.75
2023-02-23T05:14:43.537Z,65.97
2023-02-23T05:17:11.178Z,66.55
2023-02-23T05:19:38.854Z,68.05
2023-02-23T05:22:07.282Z,62.85
2023-02-23T05:24:35.366Z,60.85
2023-02-23T05:27:04.539Z,74.03
2023-02-23T05:29:32.504Z,70.97
2023-02-23T05:32:00.233Z,84.32
2023-02-23T05:34:28.159Z,87.05
2023-02-23T05:36:56.419Z,66.30
2023-02-23T05:39:24.056Z,69.07
2023-02-23T05:41:52.446Z,61.63
2023-02-23T05:44:22.100Z,75.93
2023-02-23T05:49:17.353Z,65.72
2023-02-23T05:51:45.545Z,70.82
2023-02-23T05:54:13.406Z,69.68
2023-02-23T05:56:41.250Z,64.35
2023-02-23T05:59:09.417Z,67.00
2023-02-23T06:01:38.588Z,66.70
2023-02-23T06:04:06.739Z,73.03
2023-02-23T06:06:35.116Z,75.38
2023-02-23T06:09:03.870Z,72.82
2023-02-23T06:11:31.886Z,72.83
2023-02-23T06:14:00.929Z,71.47
2023-02-23T06:16:28.817Z,72.15
2023-02-23T06:18:57.898Z,77.45
2023-02-23T06:21:26.256Z,75.47
2023-02-23T06:23:54.114Z,71.72
2023-02-23T06:26:21.780Z,74.55
2023-02-23T06:28:49.941Z,84.18
2023-02-23T06:31:18.043Z,72.82
2023-02-23T06:33:45.904Z,72.40
2023-02-23T06:36:15.443Z,72.90
2023-02-23T06:38:43.131Z,69.47
2023-02-23T06:41:11.555Z,69.95
2023-02-23T06:43:39.858Z,66.28
2023-02-23T06:46:07.609Z,69.80
2023-02-23T06:48:35.569Z,68.30
2023-02-23T06:51:03.387Z,68.27
2023-02-23T06:53:33.328Z,66.35
2023-02-23T06:56:01.484Z,69.65
2023-02-23T06:58:29.833Z,66.65
2023-02-23T07:00:58.604Z,64.90
2023-02-23T07:03:26.811Z,69.33
2023-02-23T07:05:55.473Z,64.45
2023-02-23T07:08:23.188Z,66.65
2023-02-23T07:10:52.195Z,60.22
2023-02-23T07:13:20.901Z,61.83
2023-02-23T07:15:49.248Z,65.55
2023-02-23T07:18:16.938Z,80.88
2023-02-23T07:20:45.629Z,94.70
2023-02-23T07:23:13.305Z,105.63
2023-02-23T07:25:40.952Z,77.90
2023-02-23T07:28:10.708Z,75.85
2023-02-23T07:30:38.443Z,71.97
2023-02-23T07:33:06.106Z,62.45
2023-02-23T07:35:34.165Z,71.15
2023-02-23T07:38:01.840Z,63.60
2023-02-23T07:40:29.540Z,63.55
2023-02-23T07:42:57.218Z,71.10
2023-02-23T07:45:26.251Z,66.28
2023-02-23T07:47:53.968Z,63.42
2023-02-23T07:50:22.402Z,60.97
2023-02-23T07:52:51.658Z,60.30
2023-02-23T07:55:19.734Z,59.33
2023-02-23T07:57:47.416Z,60.67
2023-02-23T08:00:15.867Z,63.95
2023-02-23T08:02:44.919Z,67.15
2023-02-23T08:05:14.002Z,67.30
2023-02-23T08:07:41.720Z,64.05
2023-02-23T08:10:10.585Z,64.55
2023-02-23T08:12:38.771Z,65.13
2023-02-23T08:15:08.279Z,70.35
2023-02-23T08:17:36.039Z,70.13
2023-02-23T08:20:06.330Z,66.53
2023-02-23T08:22:48.546Z,65.75
2023-02-23T08:25:18.131Z,59.20
2023-02-23T08:27:45.948Z,66.65
2023-02-23T08:30:14.691Z,60.20
2023-02-23T08:32:42.451Z,68.27
2023-02-23T08:35:12.798Z,65.55
2023-02-23T08:37:40.484Z,69.15
2023-02-23T08:40:10.692Z,71.13
2023-02-23T08:42:38.345Z,65.18
2023-02-23T08:45:08.599Z,70.40
2023-02-23T08:47:37.252Z,70.05
2023-02-23T08:50:05.244Z,70.72
2023-02-23T08:52:34.553Z,78.65
2023-02-23T08:55:02.854Z,79.07
2023-02-23T08:57:30.534Z,78.55
2023-02-23T08:59:58.233Z,79.88
2023-02-23T09:02:25.951Z,80.22
2023-02-23T09:04:54.052Z,75.60
2023-02-23T09:07:23.514Z,80.05
2023-02-23T09:09:56.890Z,79.53
2023-02-23T09:12:24.607Z,78.50
2023-02-23T09:14:53.718Z,76.53
2023-02-23T09:17:23.564Z,84.00
2023-02-23T09:19:51.341Z,83.35
2023-02-23T09:22:19.786Z,80.22
2023-02-23T09:24:47.541Z,75.95
2023-02-23T09:27:16.607Z,95.90
2023-02-23T09:29:44.502Z,96.13
2023-02-23T09:32:12.801Z,92.43
2023-02-23T09:34:40.756Z,84.38
2023-02-23T09:37:08.626Z,83.60
2023-02-23T09:39:39.057Z,81.85
2023-02-23T09:42:14.868Z,86.55
2023-02-23T09:44:56.793Z,81.93
2023-02-23T09:47:40.433Z,90.15
2023-02-23T09:50:16.894Z,84.50
2023-02-23T09:52:49.154Z,83.95
2023-02-23T09:55:18.066Z,82.50
2023-02-23T09:57:48.542Z,84.85
2023-02-23T10:00:24.208Z,78.20
2023-02-23T10:03:10.518Z,85.05
2023-02-23T10:05:45.219Z,84.40
2023-02-23T10:08:23.672Z,83.80
2023-02-23T10:11:01.329Z,82.78
2023-02-23T10:13:40.047Z,91.68
2023-02-23T10:16:18.550Z,84.90
2023-02-23T10:18:52.461Z,87.95
2023-02-23T10:21:31.139Z,95.20
2023-02-23T10:24:02.816Z,95.45
2023-02-23T10:26:40.032Z,104.93
2023-02-23T10:29:20.169Z,95.00
2023-02-23T10:31:52.313Z,93.25
2023-02-23T10:34:22.406Z,97.47
2023-02-23T10:36:57.067Z,92.05
2023-02-23T10:39:25.343Z,92.32
2023-02-23T10:41:54.374Z,90.35
2023-02-23T10:44:25.402Z,87.65
2023-02-23T10:46:59.622Z,74.80
2023-02-23T10:49:33.639Z,80.32
2023-02-23T10:52:02.902Z,81.30
2023-02-23T10:54:44.846Z,73.63
2023-02-23T10:57:20.036Z,70.57
2023-02-23T11:00:03.296Z,73.35
2023-02-23T11:02:32.656Z,66.28
2023-02-23T11:05:01.983Z,68.47
2023-02-23T11:07:32.178Z,78.32
2023-02-23T11:10:00.749Z,72.80
2023-02-23T11:12:38.337Z,64.93
2023-02-23T11:15:38.913Z,62.03
2023-02-23T11:18:22.640Z,65.07
2023-02-23T11:20:51.069Z,63.72
2023-02-23T11:23:24.499Z,63.78
2023-02-23T11:25:56.462Z,60.25
2023-02-23T11:28:30.508Z,54.78
2023-02-23T11:31:02.247Z,68.28
2023-02-23T11:33:36.586Z,56.58
2023-02-23T11:36:25.856Z,55.75
2023-02-23T11:39:04.043Z,54.92
2023-02-23T11:41:35.070Z,58.47
2023-02-23T11:44:06.052Z,57.60
2023-02-23T11:46:39.113Z,54.35
2023-02-23T11:49:10.816Z,56.30
2023-02-23T11:51:40.771Z,53.40
2023-02-23T11:54:20.422Z,52.05
2023-02-23T11:59:22.589Z,53.42
2023-02-23T12:01:54.165Z,60.53
2023-02-23T12:04:33.841Z,59.30
2023-02-23T12:09:51.597Z,60.92
2023-02-23T12:12:22.882Z,70.38
2023-02-23T12:14:56.229Z,64.68
2023-02-23T12:17:27.781Z,75.43
2023-02-23T12:20:02.509Z,64.95
2023-02-23T12:22:37.213Z,68.25
2023-02-23T12:25:11.192Z,66.50
2023-02-23T12:27:43.950Z,66.93
2023-02-23T12:30:19.838Z,67.32
2023-02-23T12:32:53.773Z,65.05
2023-02-23T12:35:30.961Z,65.03
2023-02-23T12:38:06.372Z,62.65
2023-02-23T12:40:38.927Z,64.35
2023-02-23T12:43:12.794Z,63.40
2023-02-23T12:45:46.359Z,65.55
2023-02-23T12:48:25.936Z,71.78
2023-02-23T12:50:58.229Z,67.18
2023-02-23T12:53:30.170Z,76.25
2023-02-23T12:56:13.669Z,69.32
2023-02-23T12:58:50.485Z,73.88
2023-02-23T13:01:25.105Z,76.22
2023-02-23T13:04:30.815Z,74.88
2023-02-23T13:07:07.391Z,74.13
2023-02-23T13:09:45.925Z,74.78
2023-02-23T13:12:27.024Z,71.07
2023-02-23T13:15:03.151Z,74.72
2023-02-23T13:17:40.302Z,69.25
2023-02-23T13:20:15.933Z,69.20
2023-02-23T13:22:51.880Z,70.50
2023-02-23T13:25:28.936Z,73.40
2023-02-23T13:28:01.387Z,69.60
2023-02-23T13:30:33.092Z,76.43
2023-02-23T13:33:03.802Z,68.47
2023-02-23T13:35:36.360Z,68.20
2023-02-23T13:38:18.750Z,65.70
2023-02-23T13:40:52.036Z,68.53
2023-02-23T13:43:30.116Z,70.78
2023-02-23T13:46:15.618Z,79.10
2023-02-23T13:48:57.426Z,71.97
2023-02-23T13:51:36.488Z,74.32
2023-02-23T13:54:23.473Z,68.72
2023-02-23T13:56:55.407Z,68.10
2023-02-23T13:59:26.284Z,69.97
2023-02-23T14:01:55.355Z,72.15
2023-02-23T14:04:25.292Z,70.57
2023-02-23T14:06:56.882Z,64.97
2023-02-23T14:09:31.203Z,62.83
2023-02-23T14:12:06.451Z,66.10
2023-02-23T14:14:45.474Z,60.30
2023-02-23T14:17:41.178Z,56.45
2023-02-23T14:20:29.555Z,60.88
2023-02-23T14:23:27.906Z,54.70
2023-02-23T14:29:18.151Z,54.22
2023-02-23T14:31:56.306Z,52.17
2023-02-23T14:34:24.903Z,50.67
2023-02-23T14:36:56.431Z,53.92
2023-02-23T14:39:27.695Z,58.55
2023-02-23T14:41:57.118Z,50.75
2023-02-23T14:44:31.317Z,45.03
2023-02-23T14:47:04.334Z,44.60
2023-02-23T14:49:36.285Z,45.38
2023-02-23T14:52:08.544Z,46.88
2023-02-23T14:54:38.423Z,40.50
2023-02-23T14:57:08.385Z,43.78
2023-02-23T14:59:42.711Z,43.05
2023-02-23T15:02:12.478Z,42.80
2023-02-23T15:04:40.266Z,43.85
2023-02-23T15:07:15.022Z,40.03
2023-02-23T15:09:44.793Z,45.53
2023-02-23T15:12:19.874Z,40.30
2023-02-23T15:14:50.378Z,40.75
2023-02-23T15:17:22.459Z,39.15
2023-02-23T15:20:05.960Z,40.10
2023-02-23T15:22:42.657Z,42.38
2023-02-23T15:25:16.749Z,40.95
2023-02-23T15:27:47.040Z,37.75
2023-02-23T15:30:27.471Z,38.28
2023-02-23T15:33:03.159Z,38.40
2023-02-23T15:35:32.430Z,37.83
2023-02-23T15:38:13.722Z,37.58
2023-02-23T15:40:46.990Z,37.20
2023-02-23T15:43:14.651Z,37.13
2023-02-23T15:45:49.403Z,31.10
2023-02-23T15:48:22.665Z,33.03
2023-02-23T15:50:54.425Z,35.55
2023-02-23T15:53:29.964Z,33.20
2023-02-23T15:56:02.976Z,43.60
2023-02-23T15:58:33.220Z,39.92
2023-02-23T16:01:10.210Z,44.97
2023-02-23T16:03:44.421Z,50.45
2023-02-23T16:06:27.385Z,41.78
2023-02-23T16:08:59.340Z,35.60
2023-02-23T16:11:28.500Z,43.35
2023-02-23T16:13:56.837Z,37.70
2023-02-23T16:16:27.650Z,40.50
2023-02-23T16:19:01.916Z,42.75
2023-02-23T16:21:32.100Z,83.07
2023-02-23T16:24:07.406Z,41.72
2023-02-23T16:26:42.300Z,42.45
2023-02-23T16:29:20.854Z,41.53
2023-02-23T16:31:56.213Z,38.38
2023-02-23T16:34:26.882Z,54.13
2023-02-23T16:36:59.032Z,44.42
2023-02-23T16:39:30.031Z,36.65
2023-02-23T16:41:58.809Z,30.98
2023-02-23T16:44:34.243Z,31.93
2023-02-23T16:47:37.335Z,23.85
2023-02-23T16:52:52.227Z,34.83
2023-02-23T16:55:25.634Z,30.45
2023-02-23T16:57:55.977Z,41.20
2023-02-23T17:00:28.594Z,33.38
2023-02-23T17:03:01.086Z,41.67
2023-02-23T17:05:30.540Z,25.85
2023-02-23T17:07:58.988Z,25.20
2023-02-23T17:10:30.330Z,21.75
2023-02-23T17:12:59.425Z,23.10
2023-02-23T17:15:30.886Z,25.25
2023-02-23T17:17:59.967Z,22.30
2023-02-23T17:20:29.515Z,21.38
2023-02-23T17:22:59.781Z,19.85
2023-02-23T17:25:28.081Z,27.38
2023-02-23T17:27:56.548Z,47.05
2023-02-23T17:30:25.264Z,23.88
2023-02-23T17:32:55.249Z,22.20
2023-02-23T17:35:25.649Z,23.63
2023-02-23T17:37:53.931Z,21.42
2023-02-23T17:40:29.072Z,18.77
2023-02-23T17:42:57.732Z,18.23
2023-02-23T17:45:25.485Z,17.38
2023-02-23T17:47:53.408Z,21.33
2023-02-23T17:50:22.168Z,21.55
2023-02-23T17:52:52.517Z,21.87
2023-02-23T17:55:22.443Z,19.40
2023-02-23T17:57:50.205Z,23.70
2023-02-23T18:00:20.595Z,23.02
2023-02-23T18:02:48.716Z,25.63
2023-02-23T18:05:16.762Z,19.67
2023-02-23T18:07:47.102Z,23.58
2023-02-23T18:10:17.579Z,33.00
2023-02-23T18:12:45.561Z,34.38
2023-02-23T18:15:13.370Z,25.23
2023-02-23T18:17:41.086Z,22.10
2023-02-23T18:20:13.929Z,23.13
2023-02-23T18:22:41.695Z,18.52
2023-02-23T18:25:10.954Z,23.98
2023-02-23T18:27:39.975Z,20.58
2023-02-23T18:30:09.686Z,19.08
2023-02-23T18:35:05.745Z,52.85
2023-02-23T18:37:33.713Z,57.53
2023-02-23T18:40:01.388Z,151.55
2023-02-23T18:42:29.048Z,92.85
2023-02-23T18:44:58.627Z,64.97
2023-02-23T18:47:26.300Z,59.33
2023-02-23T18:49:53.994Z,49.95
2023-02-23T18:52:21.882Z,44.05
2023-02-23T18:54:49.626Z,48.03
2023-02-23T18:57:17.394Z,31.02
2023-02-23T18:59:46.232Z,33.42
2023-02-23T19:02:15.235Z,32.67
2023-02-23T19:04:42.995Z,40.30
2023-02-23T19:07:10.903Z,38.00
2023-02-23T19:09:40.769Z,33.05
2023-02-23T19:12:08.805Z,26.38
2023-02-23T19:14:48.891Z,21.35
2023-02-23T19:17:18.813Z,33.72
2023-02-23T19:19:46.705Z,27.45
2023-02-23T19:22:14.355Z,31.33
2023-02-23T19:24:41.978Z,23.85
2023-02-23T19:27:10.290Z,25.65
2023-02-23T19:29:38.239Z,21.85
2023-02-23T19:32:06.489Z,26.33
2023-02-23T19:34:35.951Z,27.00
2023-02-23T19:37:03.800Z,25.98
2023-02-23T19:39:31.459Z,30.67
2023-02-23T19:41:59.344Z,32.35
2023-02-23T19:44:27.082Z,30.33
2023-02-23T19:46:54.772Z,28.10
2023-02-23T19:49:22.905Z,28.05
2023-02-23T19:51:52.897Z,28.05
2023-02-23T19:54:21.111Z,23.77
2023-02-23T19:56:50.392Z,24.88
2023-02-23T19:59:18.089Z,24.95
2023-02-23T20:01:45.806Z,27.08
2023-02-23T20:04:14.057Z,22.85
2023-02-23T20:06:46.905Z,23.02
2023-02-23T20:09:17.028Z,22.20
2023-02-23T20:11:44.726Z,25.40
2023-02-23T20:14:12.491Z,26.98
2023-02-23T20:16:40.946Z,25.95
2023-02-23T20:19:08.674Z,29.73
2023-02-23T20:21:36.844Z,32.03
2023-02-23T20:24:05.509Z,31.77
2023-02-23T20:26:36.977Z,34.88
2023-02-23T20:29:07.409Z,34.30
2023-02-23T20:31:36.926Z,33.92
2023-02-23T20:34:06.732Z,34.97
2023-02-23T20:39:03.228Z,34.72
2023-02-23T20:41:31.530Z,33.30
2023-02-23T20:44:01.447Z,36.42
2023-02-23T20:46:30.390Z,37.92
2023-02-23T20:48:59.298Z,32.92
2023-02-23T20:51:27.878Z,38.55
2023-02-23T20:53:56.008Z,41.85
2023-02-23T20:56:23.820Z,38.88
2023-02-23T20:58:54.853Z,43.45
2023-02-23T21:01:26.306Z,43.92
2023-02-23T21:03:56.578Z,44.97
2023-02-23T21:06:25.866Z,29.50
2023-02-23T21:09:01.712Z,20.75
2023-02-23T21:11:31.573Z,19.67
2023-02-23T21:13:59.495Z,21.45
2023-02-23T21:16:32.617Z,18.95
2023-02-23T21:19:04.889Z,21.52
2023-02-23T21:21:38.755Z,21.83
2023-02-23T21:24:06.545Z,18.25
2023-02-23T21:26:34.204Z,21.45
2023-02-23T21:29:02.932Z,16.52
2023-02-23T21:31:32.526Z,18.03
2023-02-23T21:36:27.949Z,19.40
2023-02-23T21:38:55.606Z,26.02
2023-02-23T21:41:23.368Z,19.92
2023-02-23T21:43:53.681Z,20.35
2023-02-23T21:46:23.442Z,22.83
2023-02-23T21:48:52.827Z,21.98
2023-02-23T21:51:21.095Z,20.10
2023-02-23T21:53:48.950Z,22.85
2023-02-23T21:56:20.470Z,21.42
2023-02-23T21:58:50.174Z,20.30
2023-02-23T22:06:19.125Z,28.13
2023-02-23T22:08:47.733Z,23.33
2023-02-23T22:11:17.463Z,21.45
2023-02-23T22:13:45.698Z,25.20
2023-02-23T22:16:14.645Z,24.60
2023-02-23T22:18:42.872Z,22.10
2023-02-23T22:21:11.773Z,29.33
2023-02-23T22:23:47.385Z,26.23
2023-02-23T22:26:15.132Z,21.48
2023-02-23T22:28:42.816Z,27.33
2023-02-23T22:31:14.212Z,24.33
2023-02-23T22:33:43.719Z,25.70
2023-02-23T22:36:14.003Z,26.90
2023-02-23T22:38:43.781Z,27.83
2023-02-23T22:41:12.194Z,27.02
2023-02-23T22:43:40.295Z,25.02
2023-02-23T22:46:09.126Z,27.17
2023-02-23T22:48:37.455Z,21.33
2023-02-23T22:51:07.757Z,21.30
2023-02-23T22:53:35.967Z,26.27
2023-02-23T22:56:05.384Z,25.52
2023-02-23T22:58:33.047Z,17.85
2023-02-23T23:01:04.709Z,19.63
2023-02-23T23:03:34.864Z,22.15
2023-02-23T23:06:05.017Z,21.65
2023-02-23T23:08:36.424Z,18.17
2023-02-23T23:11:09.895Z,22.52
2023-02-23T23:13:44.340Z,21.48
2023-02-23T23:16:25.584Z,22.63
2023-02-23T23:19:02.369Z,22.13
2023-02-23T23:21:32.983Z,19.35
2023-02-23T23:24:05.509Z,20.50
2023-02-23T23:26:37.144Z,20.75
2023-02-23T23:29:05.783Z,21.88
2023-02-23T23:31:35.445Z,22.77
2023-02-23T23:34:06.657Z,21.08
2023-02-23T23:36:37.202Z,27.60
2023-02-23T23:39:07.617Z,19.63
2023-02-23T23:41:37.324Z,27.02
2023-02-23T23:46:36.271Z,21.55
2023-02-23T23:49:08.016Z,20.05
2023-02-23T23:51:39.361Z,22.48
2023-02-23T23:54:08.173Z,26.48
2023-02-23T23:56:37.908Z,22.73
